Aviation Digital Data Service (ADDS)

Output produced by METARs form (0936 UTC 17 April 2014)
found at http://aviationweather.gov/adds/metars/
 
KBDL 170858Z 1709/1812 01005KT P6SM SKC 
     FM171200 03010KT P6SM SKC 
     FM171700 07015KT P6SM SKC 
     FM180600 02004KT P6SM FEW200